Observation data for Hart on 03/01/2021      Previous  Date  Next       Current Mesonet Observations  Soil Data  Daily Summary Page  Observations in Plain Language
KHRS 010600Z 02011KT 01/M11 A3016 RMK A01 T00081107  RH  042%=      5-min Rain = 0
KHRS 010605Z 02010KT 01/M11 A3016 RMK A01 T00071108  RH  042%=      5-min Rain = 0
KHRS 010610Z 02010KT 01/M11 A3017 RMK A01 T00071108  RH  042%=      5-min Rain = 0
KHRS 010615Z 01010KT 01/M11 A3017 RMK A01 T00081106  RH  043%=      5-min Rain = 0
KHRS 010620Z 01010KT 01/M11 A3017 RMK A01 T00091106  RH  043%=      5-min Rain = 0
KHRS 010625Z 01010KT 01/M11 A3018 RMK A01 T00101106  RH  042%=      5-min Rain = 0
KHRS 010630Z 02010KT 01/M11 A3018 RMK A01 T00101106  RH  042%=      5-min Rain = 0
KHRS 010635Z 02011KT 01/M11 A3018 RMK A01 T00091106  RH  043%=      5-min Rain = 0
KHRS 010640Z 02012KT 01/M11 A3017 RMK A01 T00071106  RH  043%=      5-min Rain = 0
KHRS 010645Z 02011KT 01/M11 A3017 RMK A01 T00051105  RH  044%=      5-min Rain = 0
KHRS 010650Z 02011KT 01/M10 A3017 RMK A01 T00051104  RH  044%=      5-min Rain = 0
KHRS 010655Z 02011KT 01/M10 A3017 RMK A01 T00071103  RH  044%=      5-min Rain = 0
KHRS 010700Z 03010KT 01/M10 A3018 RMK A01 T00081103  RH  044%=      5-min Rain = 0
KHRS 010705Z 03010KT 01/M10 A3018 RMK A01 T00091103  RH  044%=      5-min Rain = 0
KHRS 010710Z 03010KT 01/M10 A3018 RMK A01 T00091102  RH  044%=      5-min Rain = 0
KHRS 010715Z 03011KT 01/M10 A3018 RMK A01 T00091102  RH  044%=      5-min Rain = 0
KHRS 010720Z 04010KT 01/M10 A3018 RMK A01 T00101101  RH  044%=      5-min Rain = 0
KHRS 010725Z 04010KT 01/M10 A3019 RMK A01 T00111102  RH  043%=      5-min Rain = 0
KHRS 010730Z 04009KT 01/M10 A302 RMK A01 T00111102  RH  043%=      5-min Rain = 0
KHRS 010735Z 05008KT 01/M10 A3021 RMK A01 T00111101  RH  044%=      5-min Rain = 0
KHRS 010740Z 05009KT 01/M10 A3021 RMK A01 T00101101  RH  044%=      5-min Rain = 0
KHRS 010745Z 05009KT 01/M10 A3021 RMK A01 T00091101  RH  044%=      5-min Rain = 0
KHRS 010750Z 04008KT 01/M10 A3021 RMK A01 T00081102  RH  044%=      5-min Rain = 0
KHRS 010755Z 02009KT 01/M10 A3021 RMK A01 T00061101  RH  045%=      5-min Rain = 0
KHRS 010800Z 02010KT 01/M10 A3021 RMK A01 T00061099  RH  046%=      5-min Rain = 0
KHRS 010805Z 03007KT 01/M10 A3021 RMK A01 T00061100  RH  046%=      5-min Rain = 0
KHRS 010810Z 03009KT 01/M10 A302 RMK A01 T00051100  RH  046%=      5-min Rain = 0
KHRS 010815Z 03010KT 01/M10 A302 RMK A01 T00051099  RH  046%=      5-min Rain = 0
KHRS 010820Z 03011KT 00/M10 A3019 RMK A01 T00041098  RH  047%=      5-min Rain = 0
KHRS 010825Z 03012KT 00/M10 A3019 RMK A01 T00041098  RH  047%=      5-min Rain = 0
KHRS 010830Z 03011KT 00/M10 A3019 RMK A01 T00041099  RH  047%=      5-min Rain = 0
KHRS 010835Z 03010KT 00/M10 A3019 RMK A01 T00031100  RH  046%=      5-min Rain = 0
KHRS 010840Z 04010KT 00/M10 A3019 RMK A01 T00031100  RH  047%=      5-min Rain = 0
KHRS 010845Z 04009KT 00/M10 A3019 RMK A01 T00031099  RH  047%=      5-min Rain = 0
KHRS 010850Z 04010KT 00/M10 A3019 RMK A01 T00041099  RH  047%=      5-min Rain = 0
KHRS 010855Z 03010KT 00/M10 A3019 RMK A01 T00031099  RH  047%=      5-min Rain = 0
KHRS 010900Z 02011KT 00/M10 A3018 RMK A01 T00041097  RH  047%=      5-min Rain = 0
KHRS 010905Z 02012KT 00/M10 A3017 RMK A01 T00041096  RH  047%=      5-min Rain = 0
KHRS 010910Z 01014KT 01/M10 A3016 RMK A01 T00051096  RH  047%=      5-min Rain = 0
KHRS 010915Z 01013KT 00/M10 A3016 RMK A01 T00031097  RH  048%=      5-min Rain = 0
KHRS 010920Z 02012KT 00/M10 A3017 RMK A01 T00011098  RH  048%=      5-min Rain = 0
KHRS 010925Z 03010KT 00/10 A3018 RMK A01 T00000-98  RH  048%=      5-min Rain = 0
KHRS 010930Z 02012KT 00/10 A3017 RMK A01 T00-00-97  RH  049%=      5-min Rain = 0
KHRS 010935Z 02010KT 00/10 A3018 RMK A01 T00000-96  RH  049%=      5-min Rain = 0
KHRS 010940Z 03009KT M00/M10 A3018 RMK A01 T10011095  RH  050%=      5-min Rain = 0
KHRS 010945Z 03008KT M00/M10 A3019 RMK A01 T10021095  RH  050%=      5-min Rain = 0
KHRS 010950Z 03007KT M00/M10 A3019 RMK A01 T10021095  RH  050%=      5-min Rain = 0
KHRS 010955Z 04006KT M00/M10 A302 RMK A01 T10021096  RH  050%=      5-min Rain = 0
KHRS 011000Z 04006KT M00/M10 A302 RMK A01 T10021095  RH  050%=      5-min Rain = 0
KHRS 011005Z 05008KT M00/M09 A302 RMK A01 T10011094  RH  050%=      5-min Rain = 0
KHRS 011010Z 05008KT 00/09 A302 RMK A01 T00000-93  RH  050%=      5-min Rain = 0
KHRS 011015Z 05009KT 00/M09 A302 RMK A01 T00011093  RH  050%=      5-min Rain = 0
KHRS 011020Z 05008KT 00/09 A3021 RMK A01 T00-00-93  RH  050%=      5-min Rain = 0
KHRS 011025Z 05008KT M00/M09 A3022 RMK A01 T10011093  RH  050%=      5-min Rain = 0
KHRS 011030Z 05007KT M00/M09 A3022 RMK A01 T10011093  RH  050%=      5-min Rain = 0
KHRS 011035Z 04007KT M00/M09 A3022 RMK A01 T10011093  RH  050%=      5-min Rain = 0
KHRS 011040Z 04007KT M00/M09 A3023 RMK A01 T10011093  RH  051%=      5-min Rain = 0
KHRS 011045Z 04006KT M00/M09 A3024 RMK A01 T10011092  RH  051%=      5-min Rain = 0
KHRS 011050Z 04007KT M00/M09 A3024 RMK A01 T10011092  RH  051%=      5-min Rain = 0
KHRS 011055Z 04007KT 00/09 A3024 RMK A01 T00-00-92  RH  051%=      5-min Rain = 0
KHRS 011100Z 04008KT 00/09 A3024 RMK A01 T00000-92  RH  051%=      5-min Rain = 0
KHRS 011105Z 03008KT 00/09 A3024 RMK A01 T00000-91  RH  051%=      5-min Rain = 0
KHRS 011110Z 03008KT 00/09 A3024 RMK A01 T00000-91  RH  051%=      5-min Rain = 0
KHRS 011115Z 03008KT 00/M09 A3024 RMK A01 T00011090  RH  051%=      5-min Rain = 0
KHRS 011120Z 02009KT 00/09 A3024 RMK A01 T00000-89  RH  051%=      5-min Rain = 0
KHRS 011125Z 02009KT 00/09 A3023 RMK A01 T00000-89  RH  052%=      5-min Rain = 0
KHRS 011130Z 03008KT M00/M09 A3024 RMK A01 T10011090  RH  052%=      5-min Rain = 0
KHRS 011135Z 02009KT M00/M09 A3023 RMK A01 T10011090  RH  052%=      5-min Rain = 0
KHRS 011140Z 02011KT M00/M09 A3023 RMK A01 T10021089  RH  052%=      5-min Rain = 0
KHRS 011145Z 01011KT M00/M09 A3024 RMK A01 T10011089  RH  052%=      5-min Rain = 0
KHRS 011150Z 01011KT M00/M09 A3024 RMK A01 T10011088  RH  052%=      5-min Rain = 0
KHRS 011155Z 01011KT M00/M09 A3024 RMK A01 T10011088  RH  052%=      5-min Rain = 0
KHRS 011200Z 02010KT 00/09 A3024 RMK A01 T00-00-88  RH  052%=      5-min Rain = 0
KHRS 011205Z 02010KT 00/09 A3024 RMK A01 T00000-88  RH  052%=      5-min Rain = 0
KHRS 011210Z 02008KT 00/09 A3025 RMK A01 T00-00-87  RH  053%=      5-min Rain = 0
KHRS 011215Z 02009KT 00/09 A3025 RMK A01 T00000-87  RH  052%=      5-min Rain = 0
KHRS 011220Z 02008KT 00/09 A3025 RMK A01 T00000-87  RH  053%=      5-min Rain = 0
KHRS 011225Z 02008KT 00/M09 A3026 RMK A01 T00011087  RH  053%=      5-min Rain = 0
KHRS 011230Z 02009KT 00/M09 A3026 RMK A01 T00011086  RH  053%=      5-min Rain = 0
KHRS 011235Z 02010KT 00/M09 A3026 RMK A01 T00011086  RH  053%=      5-min Rain = 0
KHRS 011240Z 03010KT 00/M09 A3026 RMK A01 T00021086  RH  052%=      5-min Rain = 0
KHRS 011245Z 03011KT 00/M09 A3026 RMK A01 T00021086  RH  052%=      5-min Rain = 0
KHRS 011250Z 02010KT 00/M09 A3026 RMK A01 T00021086  RH  052%=      5-min Rain = 0
KHRS 011255Z 02009KT 00/M09 A3027 RMK A01 T00021086  RH  052%=      5-min Rain = 0
KHRS 011300Z 01008KT 00/M09 A3027 RMK A01 T00011086  RH  053%=      5-min Rain = 0
KHRS 011305Z 02008KT 00/M09 A3028 RMK A01 T00011086  RH  053%=      5-min Rain = 0
KHRS 011310Z 02007KT 00/09 A3028 RMK A01 T00-00-86  RH  053%=      5-min Rain = 0
KHRS 011315Z 02007KT M00/M09 A3028 RMK A01 T10011086  RH  054%=      5-min Rain = 0
KHRS 011320Z 00007KT M00/M09 A3029 RMK A01 T10031086  RH  054%=      5-min Rain = 0
KHRS 011325Z 00007KT M00/M09 A3029 RMK A01 T10031085  RH  055%=      5-min Rain = 0
KHRS 011330Z 01006KT M00/M09 A303 RMK A01 T10041085  RH  055%=      5-min Rain = 0
KHRS 011335Z 01006KT M00/M09 A303 RMK A01 T10031085  RH  055%=      5-min Rain = 0
KHRS 011340Z 00006KT M00/M09 A303 RMK A01 T10041085  RH  055%=      5-min Rain = 0
KHRS 011345Z 00005KT M01/M08 A3031 RMK A01 T10051084  RH  056%=      5-min Rain = 0
KHRS 011350Z 00005KT M01/M08 A3031 RMK A01 T10051083  RH  056%=      5-min Rain = 0
KHRS 011355Z 01006KT M00/M08 A3031 RMK A01 T10041083  RH  056%=      5-min Rain = 0
KHRS 011400Z 01006KT M00/M08 A3032 RMK A01 T10031082  RH  056%=      5-min Rain = 0
KHRS 011405Z 01007KT M00/M08 A3032 RMK A01 T10011083  RH  055%=      5-min Rain = 0
KHRS 011410Z 00008KT 00/M08 A3032 RMK A01 T00011082  RH  054%=      5-min Rain = 0
KHRS 011415Z 00010KT 00/M08 A3032 RMK A01 T00021082  RH  054%=      5-min Rain = 0
KHRS 011420Z 01010KT 00/M08 A3032 RMK A01 T00021083  RH  053%=      5-min Rain = 0
KHRS 011425Z 01010KT 00/M08 A3033 RMK A01 T00031082  RH  054%=      5-min Rain = 0
KHRS 011430Z 02010KT 00/M08 A3033 RMK A01 T00041081  RH  053%=      5-min Rain = 0
KHRS 011435Z 02010KT 01/M08 A3033 RMK A01 T00051082  RH  053%=      5-min Rain = 0
KHRS 011440Z 01010KT 01/M08 A3033 RMK A01 T00071081  RH  052%=      5-min Rain = 0
KHRS 011445Z 01010KT 01/M08 A3034 RMK A01 T00091080  RH  052%=      5-min Rain = 0
KHRS 011450Z 01010KT 01/M08 A3034 RMK A01 T00101082  RH  051%=      5-min Rain = 0
KHRS 011455Z 02011KT 01/M08 A3034 RMK A01 T00121083  RH  050%=      5-min Rain = 0
KHRS 011500Z 02012KT 02/M09 A3034 RMK A01 T00161085  RH  048%=      5-min Rain = 0
KHRS 011505Z 01011KT 02/M09 A3034 RMK A01 T00181086  RH  046%=      5-min Rain = 0
KHRS 011510Z 01011KT 02/M09 A3034 RMK A01 T00211086  RH  046%=      5-min Rain = 0
KHRS 011515Z 01011KT 02/M09 A3034 RMK A01 T00241089  RH  044%=      5-min Rain = 0
KHRS 011520Z 01011KT 03/M09 A3034 RMK A01 T00261091  RH  042%=      5-min Rain = 0
KHRS 011525Z 01012KT 03/M09 A3035 RMK A01 T00291091  RH  041%=      5-min Rain = 0
KHRS 011530Z 01012KT 03/M10 A3035 RMK A01 T00311095  RH  040%=      5-min Rain = 0
KHRS 011535Z 01011KT 03/M09 A3035 RMK A01 T00341093  RH  039%=      5-min Rain = 0
KHRS 011540Z 01012KT 04/M10 A3035 RMK A01 T00381098  RH  037%=      5-min Rain = 0
KHRS 011545Z 01012KT 04/M11 A3035 RMK A01 T00401106  RH  034%=      5-min Rain = 0
KHRS 011550Z 02013KT 04/M12 A3035 RMK A01 T00431116  RH  031%=      5-min Rain = 0
KHRS 011555Z 02012G17KT 05/M12 A3035 RMK A01 T00451119  RH  030%=      5-min Rain = 0
KHRS 011600Z 02013G19KT 05/M12 A3035 RMK A01 T00481121  RH  029%=      5-min Rain = 0
KHRS 011605Z 03013KT 05/M13 A3036 RMK A01 T00481126  RH  027%=      5-min Rain = 0
KHRS 011610Z 03013KT 05/M13 A3036 RMK A01 T00481127  RH  027%=      5-min Rain = 0
KHRS 011615Z 03013KT 05/M13 A3036 RMK A01 T00491127  RH  027%=      5-min Rain = 0
KHRS 011620Z 03014KT 05/M13 A3036 RMK A01 T00491128  RH  027%=      5-min Rain = 0
KHRS 011625Z 03012KT 05/M13 A3036 RMK A01 T00511126  RH  027%=      5-min Rain = 0
KHRS 011630Z 04012KT 05/M13 A3037 RMK A01 T00521127  RH  026%=      5-min Rain = 0
KHRS 011635Z 03012KT 05/M13 A3037 RMK A01 T00531126  RH  026%=      5-min Rain = 0
KHRS 011640Z 04013KT 06/M13 A3037 RMK A01 T00551127  RH  026%=      5-min Rain = 0
KHRS 011645Z 04013KT 06/M13 A3037 RMK A01 T00561125  RH  026%=      5-min Rain = 0
KHRS 011650Z 04012KT 06/M13 A3037 RMK A01 T00561125  RH  026%=      5-min Rain = 0
KHRS 011655Z 04011KT 06/M13 A3038 RMK A01 T00561125  RH  026%=      5-min Rain = 0
KHRS 011700Z 04012KT 06/M12 A3038 RMK A01 T00581124  RH  026%=      5-min Rain = 0
KHRS 011705Z 04011KT 06/M12 A3038 RMK A01 T00581124  RH  026%=      5-min Rain = 0
KHRS 011710Z 05010KT 06/M13 A3038 RMK A01 T00591125  RH  026%=      5-min Rain = 0
KHRS 011715Z 06010KT 06/M12 A3039 RMK A01 T00601123  RH  026%=      5-min Rain = 0
KHRS 011720Z 05010KT 06/M12 A3039 RMK A01 T00631124  RH  025%=      5-min Rain = 0
KHRS 011725Z 05012KT 07/M12 A3039 RMK A01 T00661122  RH  025%=      5-min Rain = 0
KHRS 011730Z 05012KT 07/M13 A3039 RMK A01 T00671125  RH  024%=      5-min Rain = 0
KHRS 011735Z 05012KT 07/M13 A3039 RMK A01 T00691125  RH  024%=      5-min Rain = 0
KHRS 011740Z 04012G17KT 07/M13 A3039 RMK A01 T00721127  RH  023%=      5-min Rain = 0
KHRS 011745Z 03012KT 07/M13 A3039 RMK A01 T00711129  RH  023%=      5-min Rain = 0
KHRS 011750Z 04011G18KT 07/M13 A3039 RMK A01 T00711127  RH  023%=      5-min Rain = 0
KHRS 011755Z 03011G17KT 07/M13 A3039 RMK A01 T00721130  RH  022%=      5-min Rain = 0
KHRS 011800Z 04011KT 07/M13 A3039 RMK A01 T00721132  RH  022%=      5-min Rain = 0
KHRS 011805Z 02013KT 08/M13 A3039 RMK A01 T00761131  RH  022%=      5-min Rain = 0
KHRS 011810Z 02012KT 08/M13 A3039 RMK A01 T00761133  RH  021%=      5-min Rain = 0
KHRS 011815Z 04013KT 08/M14 A3039 RMK A01 T00751135  RH  021%=      5-min Rain = 0
KHRS 011820Z 05013KT 08/M13 A3039 RMK A01 T00771133  RH  021%=      5-min Rain = 0
KHRS 011825Z 05011G17KT 08/M13 A3039 RMK A01 T00811133  RH  021%=      5-min Rain = 0
KHRS 011830Z 04014KT 08/M14 A3039 RMK A01 T00821137  RH  020%=      5-min Rain = 0
KHRS 011835Z 03013KT 08/M14 A3039 RMK A01 T00831138  RH  020%=      5-min Rain = 0
KHRS 011840Z 04012G21KT 08/M14 A3039 RMK A01 T00841137  RH  020%=      5-min Rain = 0
KHRS 011845Z 06014KT 09/M14 A3039 RMK A01 T00871143  RH  018%=      5-min Rain = 0
KHRS 011850Z 05012G19KT 08/M15 A3039 RMK A01 T00831148  RH  018%=      5-min Rain = 0
KHRS 011855Z 04013G18KT 08/M15 A3039 RMK A01 T00821153  RH  017%=      5-min Rain = 0
KHRS 011900Z 04014G19KT 09/M16 A3038 RMK A01 T00851157  RH  017%=      5-min Rain = 0
KHRS 011905Z 04014G21KT 09/M15 A3038 RMK A01 T00861152  RH  017%=      5-min Rain = 0
KHRS 011910Z 05011G17KT 09/M15 A3038 RMK A01 T00851153  RH  017%=      5-min Rain = 0
KHRS 011915Z 04010G16KT 09/M15 A3038 RMK A01 T00851153  RH  017%=      5-min Rain = 0
KHRS 011920Z 03013G19KT 09/M15 A3038 RMK A01 T00861148  RH  018%=      5-min Rain = 0
KHRS 011925Z 04009G15KT 09/M15 A3038 RMK A01 T00881146  RH  018%=      5-min Rain = 0
KHRS 011930Z 06009G15KT 09/M15 A3037 RMK A01 T00851151  RH  017%=      5-min Rain = 0
KHRS 011935Z 04011G16KT 09/M15 A3037 RMK A01 T00871152  RH  017%=      5-min Rain = 0
KHRS 011940Z 04013G18KT 09/M15 A3037 RMK A01 T00861151  RH  017%=      5-min Rain = 0
KHRS 011945Z 03008G13KT 09/M15 A3037 RMK A01 T00861151  RH  017%=      5-min Rain = 0
KHRS 011950Z 05011G18KT 09/M15 A3036 RMK A01 T00891151  RH  017%=      5-min Rain = 0
KHRS 011955Z 05010G17KT 09/M15 A3036 RMK A01 T00871151  RH  017%=      5-min Rain = 0
KHRS 012000Z 04007G18KT 09/M15 A3036 RMK A01 T00891149  RH  017%=      5-min Rain = 0
KHRS 012005Z 04009G17KT 09/M15 A3036 RMK A01 T00911152  RH  017%=      5-min Rain = 0
KHRS 012010Z 05006G15KT 09/M15 A3036 RMK A01 T00861150  RH  017%=      5-min Rain = 0
KHRS 012015Z 05009G16KT 09/M15 A3035 RMK A01 T00871149  RH  017%=      5-min Rain = 0
KHRS 012020Z 04010G16KT 09/M15 A3035 RMK A01 T00901146  RH  018%=      5-min Rain = 0
KHRS 012025Z 05008KT 09/M15 A3035 RMK A01 T00871147  RH  018%=      5-min Rain = 0
KHRS 012030Z 02007G12KT 09/M15 A3035 RMK A01 T00881146  RH  018%=      5-min Rain = 0
KHRS 012035Z 03007G13KT 09/M15 A3035 RMK A01 T00871147  RH  018%=      5-min Rain = 0
KHRS 012040Z 34004KT 09/M14 A3034 RMK A01 T00871143  RH  018%=      5-min Rain = 0
KHRS 012045Z 00004KT 09/M15 A3034 RMK A01 T00901145  RH  018%=      5-min Rain = 0
KHRS 012050Z 03006G12KT 09/M14 A3034 RMK A01 T00911144  RH  018%=      5-min Rain = 0
KHRS 012055Z 01010G16KT 10/M15 A3034 RMK A01 T00961150  RH  016%=      5-min Rain = 0
KHRS 012100Z 35006G11KT 09/M16 A3034 RMK A01 T00931160  RH  015%=      5-min Rain = 0
KHRS 012105Z 00005G11KT 09/M16 A3034 RMK A01 T00901156  RH  016%=      5-min Rain = 0
KHRS 012110Z 00008G14KT 09/M15 A3034 RMK A01 T00931147  RH  017%=      5-min Rain = 0
KHRS 012115Z 00011KT 10/M15 A3034 RMK A01 T00971148  RH  016%=      5-min Rain = 0
KHRS 012120Z 03007KT 09/M16 A3034 RMK A01 T00941155  RH  016%=      5-min Rain = 0
KHRS 012125Z 36004KT 09/M15 A3034 RMK A01 T00911154  RH  016%=      5-min Rain = 0
KHRS 012130Z 01006G16KT 09/M15 A3034 RMK A01 T00931150  RH  017%=      5-min Rain = 0
KHRS 012135Z 01009G15KT 10/M15 A3034 RMK A01 T00971148  RH  016%=      5-min Rain = 0
KHRS 012140Z 02008G15KT 10/M15 A3034 RMK A01 T00951148  RH  017%=      5-min Rain = 0
KHRS 012145Z 36009KT 10/M15 A3034 RMK A01 T00961148  RH  017%=      5-min Rain = 0
KHRS 012150Z 35007G19KT 10/M15 A3034 RMK A01 T00961146  RH  017%=      5-min Rain = 0
KHRS 012155Z 35011G16KT 10/M14 A3034 RMK A01 T00991144  RH  017%=      5-min Rain = 0
KHRS 012200Z 00009G14KT 10/M15 A3034 RMK A01 T00971147  RH  017%=      5-min Rain = 0
KHRS 012205Z 34008KT 10/M15 A3034 RMK A01 T00981145  RH  017%=      5-min Rain = 0
KHRS 012210Z 02009G15KT 10/M14 A3033 RMK A01 T00981144  RH  017%=      5-min Rain = 0
KHRS 012215Z 05005KT 10/M15 A3033 RMK A01 T00971145  RH  017%=      5-min Rain = 0
KHRS 012220Z 03005KT 10/M15 A3033 RMK A01 T00981145  RH  017%=      5-min Rain = 0
KHRS 012225Z 36011G16KT 10/M14 A3033 RMK A01 T01001139  RH  017%=      5-min Rain = 0
KHRS 012230Z 01010KT 10/M14 A3033 RMK A01 T01001143  RH  017%=      5-min Rain = 0
KHRS 012235Z 01009G14KT 10/M14 A3033 RMK A01 T00981141  RH  017%=      5-min Rain = 0
KHRS 012240Z 35005G10KT 10/M14 A3033 RMK A01 T00971144  RH  017%=      5-min Rain = 0
KHRS 012245Z 32003KT 10/M14 A3033 RMK A01 T00951144  RH  017%=      5-min Rain = 0
KHRS 012250Z 03006G13KT 10/M14 A3033 RMK A01 T00991143  RH  017%=      5-min Rain = 0
KHRS 012255Z 03008KT 10/M14 A3033 RMK A01 T00981144  RH  017%=      5-min Rain = 0
KHRS 012300Z 02009KT 10/M14 A3033 RMK A01 T01011142  RH  017%=      5-min Rain = 0
KHRS 012305Z 02007G12KT 10/M15 A3033 RMK A01 T00981147  RH  016%=      5-min Rain = 0
KHRS 012310Z 05003KT 10/M15 A3033 RMK A01 T00961148  RH  017%=      5-min Rain = 0
KHRS 012315Z 36002G7KT 10/M15 A3033 RMK A01 T00971148  RH  016%=      5-min Rain = 0
KHRS 012320Z 35006KT 10/M15 A3033 RMK A01 T00981152  RH  016%=      5-min Rain = 0
KHRS 012325Z 01008KT 10/M16 A3033 RMK A01 T00971155  RH  016%=      5-min Rain = 0
KHRS 012330Z 36007KT 10/M16 A3033 RMK A01 T00951156  RH  016%=      5-min Rain = 0
KHRS 012335Z 35009KT 09/M16 A3033 RMK A01 T00931158  RH  015%=      5-min Rain = 0
KHRS 012340Z 35007KT 09/M16 A3033 RMK A01 T00921157  RH  016%=      5-min Rain = 0
KHRS 012345Z 33006KT 09/M16 A3033 RMK A01 T00911157  RH  016%=      5-min Rain = 0
KHRS 012350Z 33006KT 09/M16 A3033 RMK A01 T00911156  RH  016%=      5-min Rain = 0
KHRS 012355Z 34005KT 09/M16 A3033 RMK A01 T00891157  RH  016%=      5-min Rain = 0
KHRS 020000Z 35003KT 09/M16 A3033 RMK A01 T00881157  RH  016%=      5-min Rain = 0
KHRS 020005Z 35004KT 09/M15 A3033 RMK A01 T00881153  RH  017%=      5-min Rain = 0
KHRS 020010Z 35005KT 09/M15 A3033 RMK A01 T00871152  RH  017%=      5-min Rain = 0
KHRS 020015Z 35007KT 08/M15 A3033 RMK A01 T00841146  RH  018%=      5-min Rain = 0
KHRS 020020Z 35005KT 08/M15 A3033 RMK A01 T00801147  RH  019%=      5-min Rain = 0
KHRS 020025Z 35005KT 08/M14 A3033 RMK A01 T00771144  RH  019%=      5-min Rain = 0
KHRS 020030Z 00004KT 07/M14 A3033 RMK A01 T00731144  RH  020%=      5-min Rain = 0
KHRS 020035Z 01005KT 07/M14 A3033 RMK A01 T00681142  RH  021%=      5-min Rain = 0
KHRS 020040Z 02005KT 06/M14 A3033 RMK A01 T00631142  RH  022%=      5-min Rain = 0
KHRS 020045Z 03004KT 06/M13 A3033 RMK A01 T00571132  RH  025%=      5-min Rain = 0
KHRS 020050Z 04003KT 05/M13 A3033 RMK A01 T00541134  RH  025%=      5-min Rain = 0
KHRS 020055Z 04004KT 05/M14 A3033 RMK A01 T00531140  RH  024%=      5-min Rain = 0
KHRS 020100Z 04004KT 05/M14 A3033 RMK A01 T00521143  RH  023%=      5-min Rain = 0
KHRS 020105Z 04004KT 05/M14 A3033 RMK A01 T00511141  RH  024%=      5-min Rain = 0
KHRS 020110Z 04004KT 05/M13 A3033 RMK A01 T00491134  RH  026%=      5-min Rain = 0
KHRS 020115Z 04004KT 05/M13 A3033 RMK A01 T00461134  RH  026%=      5-min Rain = 0
KHRS 020120Z 04003KT 05/M14 A3033 RMK A01 T00451138  RH  025%=      5-min Rain = 0
KHRS 020125Z 04003KT 04/M15 A3033 RMK A01 T00441150  RH  023%=      5-min Rain = 0
KHRS 020130Z 04003KT 05/M15 A3033 RMK A01 T00461153  RH  022%=      5-min Rain = 0
KHRS 020135Z 04003KT 04/M16 A3033 RMK A01 T00431155  RH  023%=      5-min Rain = 0
KHRS 020140Z 04003KT 04/M16 A3033 RMK A01 T00401157  RH  023%=      5-min Rain = 0
KHRS 020145Z 04003KT 04/M16 A3033 RMK A01 T00381157  RH  023%=      5-min Rain = 0
KHRS 020150Z 04002KT 04/M16 A3033 RMK A01 T00361156  RH  023%=      5-min Rain = 0
KHRS 020155Z 06003KT 04/M15 A3033 RMK A01 T00371153  RH  024%=      5-min Rain = 0
KHRS 020200Z 07004KT 04/M15 A3033 RMK A01 T00421152  RH  023%=      5-min Rain = 0
KHRS 020205Z 07003KT 04/M15 A3033 RMK A01 T00421153  RH  023%=      5-min Rain = 0
KHRS 020210Z 08003KT 04/M15 A3033 RMK A01 T00411151  RH  024%=      5-min Rain = 0
KHRS 020215Z 08003KT 04/M15 A3033 RMK A01 T00401153  RH  023%=      5-min Rain = 0
KHRS 020220Z 08004KT 04/M15 A3033 RMK A01 T00361153  RH  024%=      5-min Rain = 0
KHRS 020225Z 08004KT 03/M15 A3033 RMK A01 T00331153  RH  024%=      5-min Rain = 0
KHRS 020230Z 08004KT 03/M15 A3033 RMK A01 T00311154  RH  025%=      5-min Rain = 0
KHRS 020235Z 09004KT 03/M15 A3034 RMK A01 T00281153  RH  025%=      5-min Rain = 0
KHRS 020240Z 09004KT 03/M15 A3034 RMK A01 T00271147  RH  027%=      5-min Rain = 0
KHRS 020245Z 11004KT 03/M14 A3034 RMK A01 T00281144  RH  027%=      5-min Rain = 0
KHRS 020250Z 17005KT 03/M15 A3034 RMK A01 T00281148  RH  027%=      5-min Rain = 0
KHRS 020255Z 17005KT 02/M15 A3034 RMK A01 T00221147  RH  028%=      5-min Rain = 0
KHRS 020300Z 16005KT 02/M14 A3034 RMK A01 T00241143  RH  028%=      5-min Rain = 0
KHRS 020305Z 16004KT 03/M14 A3033 RMK A01 T00281143  RH  028%=      5-min Rain = 0
KHRS 020310Z 16005KT 03/M14 A3033 RMK A01 T00311144  RH  027%=      5-min Rain = 0
KHRS 020315Z 17005KT 03/M14 A3033 RMK A01 T00311141  RH  027%=      5-min Rain = 0
KHRS 020320Z 18005KT 03/M14 A3034 RMK A01 T00251138  RH  029%=      5-min Rain = 0
KHRS 020325Z 18004KT 02/M14 A3034 RMK A01 T00171139  RH  031%=      5-min Rain = 0
KHRS 020330Z 17004KT 01/M14 A3034 RMK A01 T00121137  RH  032%=      5-min Rain = 0
KHRS 020335Z 15006G12KT 01/M14 A3034 RMK A01 T00131139  RH  032%=      5-min Rain = 0
KHRS 020340Z 14009KT 01/M15 A3034 RMK A01 T00061149  RH  031%=      5-min Rain = 0
KHRS 020345Z 15007KT 01/M15 A3034 RMK A01 T00071154  RH  029%=      5-min Rain = 0
KHRS 020350Z 16007KT 01/M16 A3033 RMK A01 T00081157  RH  028%=      5-min Rain = 0
KHRS 020355Z 17005KT 00/M16 A3034 RMK A01 T00031159  RH  029%=      5-min Rain = 0
KHRS 020400Z 18007KT M00/M16 A3033 RMK A01 T10011158  RH  030%=      5-min Rain = 0
KHRS 020405Z 17007KT 00/16 A3033 RMK A01 T00-00-155  RH  031%=      5-min Rain = 0
KHRS 020410Z 18008KT 00/M16 A3033 RMK A01 T00011157  RH  030%=      5-min Rain = 0
KHRS 020415Z 17007KT 00/M15 A3033 RMK A01 T00041154  RH  030%=      5-min Rain = 0
KHRS 020420Z 18007KT 00/M15 A3034 RMK A01 T00031146  RH  032%=      5-min Rain = 0
KHRS 020425Z 18008KT 00/M12 A3033 RMK A01 T00031122  RH  039%=      5-min Rain = 0
KHRS 020430Z 19008KT 01/M11 A3033 RMK A01 T00061110  RH  042%=      5-min Rain = 0
KHRS 020435Z 19008KT 00/M11 A3034 RMK A01 T00021108  RH  044%=      5-min Rain = 0
KHRS 020440Z 19008KT M00/M11 A3033 RMK A01 T10031109  RH  045%=      5-min Rain = 0
KHRS 020445Z 19008KT M01/M11 A3034 RMK A01 T10071106  RH  048%=      5-min Rain = 0
KHRS 020450Z 20008KT M01/M10 A3034 RMK A01 T10121101  RH  052%=      5-min Rain = 0
KHRS 020455Z 20008KT M02/M10 A3034 RMK A01 T10171095  RH  056%=      5-min Rain = 0
KHRS 020500Z 21008KT M02/M09 A3034 RMK A01 T10181091  RH  058%=      5-min Rain = 0
KHRS 020505Z 21008KT M02/M09 A3034 RMK A01 T10191087  RH  060%=      5-min Rain = 0
KHRS 020510Z 20009KT M02/M08 A3033 RMK A01 T10211084  RH  063%=      5-min Rain = 0
KHRS 020515Z 20008KT M02/M08 A3033 RMK A01 T10211080  RH  065%=      5-min Rain = 0
KHRS 020520Z 21008KT M02/M08 A3033 RMK A01 T10231079  RH  066%=      5-min Rain = 0
KHRS 020525Z 21010KT M02/M07 A3033 RMK A01 T10201071  RH  069%=      5-min Rain = 0
KHRS 020530Z 21010KT M02/M07 A3033 RMK A01 T10161068  RH  069%=      5-min Rain = 0
KHRS 020535Z 21010KT M02/M06 A3032 RMK A01 T10161064  RH  071%=      5-min Rain = 0
KHRS 020540Z 21010KT M02/M06 A3033 RMK A01 T10151062  RH  071%=      5-min Rain = 0
KHRS 020545Z 21009KT M02/M06 A3032 RMK A01 T10151059  RH  073%=      5-min Rain = 0
KHRS 020550Z 22009KT M01/M06 A3032 RMK A01 T10141056  RH  074%=      5-min Rain = 0
KHRS 020555Z 22008KT M02/M06 A3032 RMK A01 T10161058  RH  074%=      5-min Rain = 0

Page generated in 0.0574 seconds.